Station: Busselton Airport  

  Atmospheric Gas Attenuation - ITU Rec 676-11   ----------------- dB/100km -----------------
Date Time Temp RH % AH g/m3 Dew Point Wind Direction Speed kph Gust kph Barometer mB Rainfall Since 9am 24GHz 47GHz 76GHz 122GHz 134GHz 241GHz
06/05 07:00 9.6 88 8.06 7.7 15 19 1030.6 0.2 18.6 26.9 40.5 106.0 97.8 335.7
06/05 06:50 9.5 89 8.1 7.8 15 17 1030.5 0.2 18.7 27.0 40.7 106.6 98.5 338.1
06/05 06:40 9 89 7.85 7.3 11 13 1030.5 0.2 18.2 26.7 39.9 104.4 95.7 328.0
06/05 06:30 9.1 89 7.9 7.4 11 13 1030.4 0.2 18.3 26.8 40.1 104.8 96.2 330.0
06/05 06:20 8.7 89 7.7 7 11 13 1030.3 0.2 17.9 26.6 39.4 103.1 93.9 322.0
06/05 06:10 9 88 7.76 7.1 11 11 1030.3 0.2 18.0 26.6 39.5 103.4 94.4 323.6
06/05 06:00 9.2 88 7.86 7.3 9 9 1030.2 0.2 18.2 26.7 39.8 104.2 95.5 327.6
06/05 05:50 9.3 87 7.82 7.3 7 9 1030.1 0.2 18.1 26.6 39.6 103.6 94.8 325.2
06/05 05:40 9.3 86 7.73 7.1 9 9 1030 0.2 17.9 26.4 39.2 102.6 93.6 320.9
06/05 05:30 9.7 85 7.84 7.3 11 15 1029.9 0.2 18.1 26.5 39.5 103.3 94.6 324.5
06/05 05:20 10 85 7.99 7.6 13 13 1029.8 0.2 18.4 26.6 40.0 104.6 96.3 330.4
06/05 05:10 9.9 86 8.03 7.7 13 15 1029.7 0.2 18.5 26.7 40.2 105.1 97.0 332.7
06/05 05:00 9.5 86 7.83 7.3 15 17 1029.5 0.2 18.1 26.5 39.5 103.4 94.7 324.7
06/05 04:50 9.9 85 7.94 7.5 15 17 1029.5 0.2 18.3 26.6 39.8 104.1 95.7 328.4
06/05 04:40 10 85 7.99 7.6 15 17 1029.4 0.2 18.4 26.6 39.9 104.5 96.3 330.3
06/05 04:30 9.4 87 7.87 7.3 15 17 1029.2 0.2 18.2 26.6 39.7 104.0 95.3 327.0
06/05 04:20 9.3 85 7.64 6.9 15 17 1029.2 0.2 17.7 26.2 38.8 101.5 92.3 316.3
06/05 04:10 9.8 84 7.8 7.2 17 17 1029.2 0.2 18.1 26.4 39.2 102.7 93.9 322.0
06/05 04:00 10.2 83 7.9 7.4 15 19 1029.1 0.2 18.2 26.4 39.5 103.2 94.8 325.1
06/05 03:50 10.4 83 8 7.6 15 17 1029.1 0.2 18.5 26.5 39.8 104.1 95.9 329.0
06/05 03:40 10.2 84 8 7.6 15 19 1029.1 0.2 18.5 26.6 39.9 104.3 96.1 329.9
06/05 03:30 10.3 83 7.95 7.5 17 19 1029 0.2 18.3 26.5 39.6 103.7 95.3 327.0
06/05 03:20 10.3 84 8.05 7.7 17 19 1029.1 0.2 18.6 26.6 40.0 104.8 96.7 331.8
06/05 03:10 10.2 83 7.9 7.4 17 19 1029 0.2 18.2 26.4 39.4 103.2 94.8 325.0
06/05 03:00 10.8 82 8.11 7.9 17 19 1028.9 0.2 18.7 26.6 40.0 104.7 96.9 332.5
06/05 02:50 10.9 81 8.06 7.8 17 19 1029 0.2 18.6 26.5 39.8 104.1 96.1 329.8
06/05 02:40 11 81 8.11 7.9 17 17 1028.9 0.2 18.7 26.5 39.9 104.5 96.6 331.7
06/05 02:30 10.7 82 8.06 7.8 17 22 1028.8 0.2 18.6 26.5 39.9 104.3 96.3 330.6
06/05 02:20 11 80 8.01 7.7 17 17 1028.9 0.2 18.4 26.3 39.5 103.4 95.3 326.9
06/05 02:10 11 81 8.11 7.9 17 19 1028.9 0.2 18.7 26.5 39.9 104.5 96.6 331.7
06/05 02:00 11 80 8.01 7.7 17 20 1028.9 0.2 18.4 26.3 39.5 103.4 95.3 326.9
06/05 01:50 11.4 79 8.11 7.9 19 22 1029 0.2 18.6 26.4 39.7 104.0 96.1 330.0
06/05 01:40 11.5 79 8.16 8 19 20 1029 0.2 18.7 26.4 39.9 104.4 96.7 332.0
06/05 01:30 11.1 80 8.06 7.8 19 22 1028.9 0.2 18.5 26.4 39.7 103.8 95.8 328.9
06/05 01:20 11.2 79 8.01 7.7 19 20 1029 0.2 18.4 26.3 39.4 103.1 95.0 326.1
06/05 01:10 11.3 79 8.06 7.8 17 20 1028.9 0.2 18.5 26.3 39.6 103.5 95.6 328.1
06/05 01:00 11.5 78 8.06 7.8 17 22 1028.9 0.2 18.5 26.3 39.5 103.3 95.3 327.2
06/05 00:50 11.7 78 8.16 8 19 22 1029 0.2 18.7 26.4 39.8 104.1 96.4 331.1
06/05 00:40 11.4 79 8.11 7.9 17 19 1029 0.2 18.6 26.4 39.7 104.0 96.1 330.0
06/05 00:30 11.1 81 8.16 8 15 19 1028.8 0.2 18.8 26.6 40.1 104.9 97.2 333.6
06/05 00:20 10.6 81 7.91 7.5 15 15 1028.9 0.2 18.3 26.3 39.3 102.8 94.4 323.8
06/05 00:10 11.3 80 8.16 8 13 15 1028.7 0.2 18.8 26.5 40.0 104.6 96.9 332.8
06/05 00:00 10.9 80 7.96 7.6 15 17 1028.6 0.2 18.3 26.3 39.3 102.9 94.7 324.9
05/05 23:50 11.2 78 7.91 7.5 15 15 1028.8 0.2 18.2 26.1 39.0 102.0 93.7 321.3
05/05 23:40 11.8 78 8.21 8.1 17 19 1028.7 0.2 18.8 26.4 39.9 104.5 97.0 333.0
05/05 23:30 11.7 77 8.05 7.8 17 20 1028.7 0.2 18.5 26.2 39.3 102.9 94.9 325.9
05/05 23:20 12.1 76 8.15 8 17 20 1028.7 0.2 18.7 26.2 39.5 103.4 95.8 328.9
05/05 23:10 12.5 75 8.25 8.2 17 19 1028.7 0.2 18.9 26.3 39.7 104.0 96.6 331.9
05/05 23:00 12.6 75 8.3 8.3 19 22 1028.6 0.2 19.0 26.3 39.9 104.4 97.2 333.8
05/05 22:50 12.6 75 8.3 8.3 20 22 1028.7 0.2 19.0 26.3 39.9 104.4 97.2 333.9
05/05 22:40 12.4 76 8.3 8.3 17 19 1028.7 0.2 19.0 26.4 40.0 104.7 97.4 334.7
05/05 22:30 12.8 74 8.29 8.3 19 26 1028.7 0.2 19.0 26.3 39.7 104.0 96.8 332.5
05/05 22:20 12.8 74 8.29 8.3 19 20 1028.9 0.2 19.0 26.3 39.7 104.1 96.8 332.6
05/05 22:10 13 73 8.28 8.3 19 20 1028.8 0.2 18.9 26.2 39.6 103.7 96.4 331.3
05/05 22:00 13 73 8.28 8.3 19 24 1028.7 0.2 18.9 26.2 39.6 103.7 96.4 331.2
05/05 21:50 13.1 73 8.33 8.4 20 22 1028.7 0.2 19.0 26.2 39.7 104.1 96.9 333.1
05/05 21:40 13.1 73 8.33 8.4 15 20 1028.7 0.2 19.0 26.2 39.7 104.1 96.9 333.1
05/05 21:30 12.8 75 8.4 8.5 17 24 1028.6 0.2 19.2 26.4 40.2 105.2 98.3 337.7
05/05 21:20 13.1 74 8.44 8.6 19 22 1028.6 0.2 19.3 26.4 40.2 105.3 98.4 338.3
05/05 21:10 13.1 74 8.44 8.6 19 22 1028.6 0.2 19.3 26.4 40.2 105.3 98.4 338.3
05/05 21:00 13.3 74 8.55 8.8 19 24 1028.4 0.2 19.5 26.5 40.5 106.2 99.6 342.5
05/05 20:50 13.4 74 8.6 8.9 19 20 1028.4 0.2 19.6 26.6 40.7 106.6 100.2 344.4
05/05 20:40 13.6 74 8.71 9.1 20 22 1028.3 0.2 19.8 26.7 41.0 107.5 101.4 348.7
05/05 20:30 13.6 74 8.71 9.1 19 26 1028.2 0.2 19.8 26.7 41.0 107.5 101.4 348.6
05/05 20:20 13.6 74 8.71 9.1 19 22 1028.2 0.2 19.8 26.7 41.0 107.5 101.4 348.6
05/05 20:10 13.9 73 8.75 9.1 20 22 1028.1 0.2 19.9 26.7 41.0 107.5 101.5 349.2
05/05 20:00 14.2 73 8.91 9.4 19 24 1027.9 0.2 20.2 26.8 41.5 108.8 103.2 355.3
05/05 19:50 14.4 72 8.9 9.4 20 26 1027.9 0.2 20.2 26.8 41.4 108.4 102.8 353.9
05/05 19:40 14.6 72 9.01 9.6 22 24 1027.9 0.2 20.4 26.9 41.7 109.3 104.0 358.1
05/05 19:30 14.6 73 9.14 9.8 20 24 1027.7 0.2 20.7 27.1 42.2 110.7 105.8 364.2
05/05 19:20 14.9 72 9.18 9.9 20 24 1027.7 0.2 20.8 27.1 42.2 110.7 105.9 364.7
05/05 19:10 15.1 71 9.16 9.9 20 24 1027.7 0.2 20.7 27.0 42.0 110.3 105.3 362.8
05/05 19:00 15.2 71 9.22 10 20 24 1027.5 0.2 20.8 27.0 42.2 110.7 106.0 365.1
05/05 18:50 15.3 71 9.27 10.1 19 22 1027.4 0.2 20.9 27.1 42.4 111.1 106.5 367.0
05/05 18:40 15.5 70 9.25 10.1 20 24 1027.3 0.2 20.9 27.0 42.2 110.6 106.0 365.1
05/05 18:30 15.6 70 9.31 10.2 19 22 1027.1 0.2 21.0 27.0 42.4 111.1 106.6 367.3
05/05 18:20 15.5 69 9.12 9.8 17 20 1027.1 0.2 20.6 26.8 41.6 109.2 104.2 358.9
05/05 18:10 15.8 67 9.02 9.7 17 19 1026.9 0.2 20.4 26.5 41.1 107.7 102.5 352.9
05/05 18:00 16.2 66 9.1 9.8 17 24 1026.8 0.2 20.5 26.5 41.2 108.0 103.0 354.8
05/05 17:50 16.2 65 8.96 9.6 17 19 1026.7 0.2 20.2 26.3 40.6 106.5 101.2 348.3
05/05 17:40 16 66 8.99 9.7 15 17 1026.6 0.2 20.3 26.4 40.8 107.1 101.8 350.6
05/05 17:30 17.1 62 9.02 9.8 17 20 1026.5 0.2 20.3 26.1 40.4 105.9 100.8 347.0
05/05 17:20 17.6 61 9.15 10 17 19 1026.4 0.2 20.6 26.2 40.6 106.6 101.8 350.7
05/05 17:10 18.1 60 9.27 10.2 15 19 1026.3 0.2 20.8 26.2 40.9 107.2 102.7 353.9
05/05 17:00 18.7 59 9.45 10.5 13 17 1026.2 0.2 21.1 26.3 41.2 108.2 104.2 359.2
05/05 16:50 19.2 58 9.56 10.7 11 13 1026.1 0.2 21.3 26.3 41.4 108.7 104.9 361.9
05/05 16:40 19.6 54 9.12 10 15 17 1026 0.2 20.4 25.5 39.5 103.6 98.8 340.6
05/05 16:30 20 54 9.33 10.4 13 19 1026 0.2 20.8 25.7 40.1 105.2 100.9 348.1
05/05 16:20 20.2 50 8.74 9.5 9 11 1026 0.2 19.6 24.8 37.8 99.0 93.4 321.6
05/05 16:10 20.3 52 9.14 10.1 13 13 1026 0.2 20.4 25.4 39.3 102.9 98.2 338.5
05/05 16:00 20.4 50 8.84 9.6 13 24 1025.9 0.2 19.8 24.9 38.1 99.8 94.4 325.0
05/05 15:50 20.5 51 9.07 10 11 13 1025.9 0.2 20.2 25.2 38.9 101.9 97.1 334.6
05/05 15:40 20.8 50 9.05 10 11 13 1025.8 0.2 20.2 25.1 38.7 101.3 96.5 332.4
05/05 15:30 20.6 51 9.13 10.1 9 15 1025.9 0.2 20.4 25.3 39.1 102.4 97.7 336.7
05/05 15:20 20.7 50 9 9.9 9 11 1025.9 0.2 20.1 25.0 38.5 101.0 96.0 330.7
05/05 15:10 20.5 49 8.72 9.4 7 11 1025.9 0.2 19.5 24.7 37.6 98.4 92.8 319.5
05/05 15:00 20.8 51 9.23 10.3 11 15 1025.9 0.2 20.6 25.4 39.3 103.2 98.7 340.2
05/05 14:50 20.5 50 8.9 9.7 9 13 1025.9 0.2 19.9 24.9 38.2 100.2 95.0 327.2
05/05 10:42 17.5 68 10.14 11.5 15 17 1028 0 22.7 27.8 44.7 117.5 115.1 397.2
05/05 10:40 17.2 68 9.96 11.2 13 17 1028 0 22.3 27.6 44.2 115.9 113.1 390.2

Last Refresh: 06-May-2026 08:41:28

Bureau of Meteorology